createdAt,value
2019-02-02T00:02:10.754Z,16.13
2019-02-02T00:04:38.332Z,17.30
2019-02-02T00:07:05.947Z,16.37
2019-02-02T00:09:33.586Z,16.20
2019-02-02T00:12:01.203Z,17.37
2019-02-02T00:14:28.797Z,16.13
2019-02-02T00:16:56.775Z,15.23
2019-02-02T00:19:24.389Z,15.27
2019-02-02T00:21:52.273Z,15.23
2019-02-02T00:24:20.266Z,15.00
2019-02-02T00:26:48.258Z,16.63
2019-02-02T00:29:15.816Z,15.47
2019-02-02T00:31:43.468Z,15.33
2019-02-02T00:34:11.628Z,15.70
2019-02-02T00:36:39.537Z,15.80
2019-02-02T00:39:08.244Z,15.40
2019-02-02T00:41:36.241Z,16.07
2019-02-02T00:44:04.189Z,15.47
2019-02-02T00:46:31.742Z,14.80
2019-02-02T00:48:59.717Z,16.00
2019-02-02T00:51:27.339Z,15.50
2019-02-02T00:53:54.970Z,16.47
2019-02-02T00:56:22.591Z,15.53
2019-02-02T00:58:50.209Z,16.10
2019-02-02T01:01:17.883Z,14.60
2019-02-02T01:03:45.871Z,15.77
2019-02-02T01:06:13.934Z,15.07
2019-02-02T01:08:41.517Z,14.07
2019-02-02T01:11:09.077Z,14.43
2019-02-02T01:13:37.094Z,15.13
2019-02-02T01:16:05.717Z,14.00
2019-02-02T01:18:33.719Z,14.57
2019-02-02T01:21:01.569Z,13.90
2019-02-02T01:23:29.219Z,15.07
2019-02-02T01:25:56.826Z,14.53
2019-02-02T01:28:24.426Z,14.07
2019-02-02T01:30:52.063Z,14.60
2019-02-02T01:33:20.312Z,14.73
2019-02-02T01:35:48.313Z,15.27
2019-02-02T01:38:16.269Z,14.27
2019-02-02T01:40:44.271Z,13.17
2019-02-02T01:43:11.907Z,14.37
2019-02-02T01:45:39.436Z,13.77
2019-02-02T01:48:07.104Z,12.10
2019-02-02T01:50:35.080Z,13.27
2019-02-02T01:53:02.658Z,12.47
2019-02-02T01:55:30.328Z,12.17
2019-02-02T01:57:57.876Z,12.40
2019-02-02T02:00:32.502Z,13.07
2019-02-02T02:03:00.289Z,12.87
2019-02-02T02:05:28.253Z,13.10
2019-02-02T02:07:55.833Z,12.07
2019-02-02T02:10:23.777Z,12.37
2019-02-02T02:12:51.706Z,12.57
2019-02-02T02:15:19.696Z,11.33
2019-02-02T02:17:47.271Z,11.13
2019-02-02T02:20:15.592Z,11.60
2019-02-02T02:22:43.646Z,10.50
2019-02-02T02:25:12.072Z,9.23
2019-02-02T02:27:39.646Z,9.63
2019-02-02T02:30:08.765Z,9.07
2019-02-02T02:32:36.809Z,8.70
2019-02-02T02:35:05.488Z,8.23
2019-02-02T02:37:33.102Z,8.57
2019-02-02T02:40:00.754Z,7.80
2019-02-02T02:42:28.316Z,8.50
2019-02-02T02:44:56.384Z,7.93
2019-02-02T02:47:30.729Z,6.80
2019-02-02T02:49:58.365Z,6.53
2019-02-02T02:52:25.934Z,6.30
2019-02-02T02:54:53.936Z,6.00
2019-02-02T02:57:22.010Z,6.03
2019-02-02T02:59:49.548Z,5.73
2019-02-02T03:02:17.238Z,5.60
2019-02-02T03:04:44.855Z,4.80
2019-02-02T03:07:12.415Z,5.43
2019-02-02T03:09:40.016Z,5.17
2019-02-02T03:12:07.621Z,5.20
2019-02-02T03:14:35.619Z,4.83
2019-02-02T03:17:03.278Z,5.20
2019-02-02T03:19:31.278Z,4.53
2019-02-02T03:21:58.811Z,3.73
2019-02-02T03:24:26.445Z,4.00
2019-02-02T03:26:54.442Z,4.30
2019-02-02T03:29:22.424Z,4.63
2019-02-02T03:31:50.022Z,3.57
2019-02-02T03:34:18.074Z,4.40
2019-02-02T03:36:45.730Z,4.63
2019-02-02T03:39:13.309Z,4.30
2019-02-02T03:41:41.262Z,4.10
2019-02-02T03:44:08.926Z,3.40
2019-02-02T03:46:36.493Z,3.97
2019-02-02T03:49:04.169Z,3.83
2019-02-02T03:51:32.123Z,4.40
2019-02-02T03:54:08.455Z,3.73
2019-02-02T03:56:29.350Z,4.00
2019-02-02T03:59:06.266Z,3.50
2019-02-02T04:01:26.541Z,4.30
2019-02-02T04:03:54.642Z,4.30
2019-02-02T04:06:22.277Z,4.47
2019-02-02T04:08:50.201Z,4.63
2019-02-02T04:11:17.965Z,4.30
2019-02-02T04:13:45.953Z,4.10
2019-02-02T04:16:13.516Z,4.00
2019-02-02T04:18:41.088Z,4.63
2019-02-02T04:21:09.032Z,5.30
2019-02-02T04:23:36.622Z,6.77
2019-02-02T04:26:05.182Z,6.42
2019-02-02T04:28:32.768Z,8.13
2019-02-02T04:31:00.335Z,8.20
2019-02-02T04:33:28.263Z,7.97
2019-02-02T04:35:55.848Z,9.43
2019-02-02T04:38:23.533Z,8.47
2019-02-02T04:40:51.106Z,8.10
2019-02-02T04:43:18.656Z,8.90
2019-02-02T04:45:46.313Z,13.63
2019-02-02T04:48:13.897Z,28.33
2019-02-02T04:50:41.533Z,31.93
2019-02-02T04:53:09.220Z,9.87
2019-02-02T04:55:36.826Z,5.53
2019-02-02T04:58:05.208Z,4.40
2019-02-02T05:00:33.267Z,4.30
2019-02-02T05:03:00.842Z,4.43
2019-02-02T05:05:29.077Z,3.47
2019-02-02T05:07:56.684Z,4.33
2019-02-02T05:10:24.914Z,3.77
2019-02-02T05:12:52.840Z,3.73
2019-02-02T05:15:20.829Z,3.40
2019-02-02T05:17:48.490Z,3.90
2019-02-02T05:20:16.997Z,3.27
2019-02-02T05:22:44.568Z,3.40
2019-02-02T05:25:12.411Z,4.67
2019-02-02T05:27:40.004Z,4.03
2019-02-02T05:30:09.209Z,3.50
2019-02-02T05:32:37.117Z,3.40
2019-02-02T05:35:06.784Z,2.80
2019-02-02T05:37:34.412Z,3.10
2019-02-02T05:40:02.401Z,3.00
2019-02-02T05:42:30.429Z,3.30
2019-02-02T05:44:58.094Z,2.70
2019-02-02T05:47:26.174Z,2.90
2019-02-02T05:49:55.138Z,3.37
2019-02-02T05:52:22.724Z,3.33
2019-02-02T05:54:50.301Z,2.73
2019-02-02T05:57:17.850Z,3.23
2019-02-02T05:59:52.434Z,3.10
2019-02-02T06:02:15.110Z,2.73
2019-02-02T06:04:42.705Z,3.03
2019-02-02T06:07:10.766Z,2.97
2019-02-02T06:09:38.304Z,2.90
2019-02-02T06:12:06.557Z,2.80
2019-02-02T06:14:34.153Z,2.87
2019-02-02T06:19:52.938Z,2.17
2019-02-02T06:22:20.516Z,2.67
2019-02-02T06:24:48.401Z,2.93
2019-02-02T06:27:15.992Z,2.57
2019-02-02T06:29:43.885Z,3.30
2019-02-02T06:32:12.286Z,3.83
2019-02-02T06:34:40.611Z,2.63
2019-02-02T06:37:08.557Z,3.17
2019-02-02T06:39:36.148Z,2.77
2019-02-02T06:42:03.856Z,2.33
2019-02-02T06:44:31.402Z,3.30
2019-02-02T06:46:58.972Z,2.90
2019-02-02T06:49:26.936Z,3.10
2019-02-02T06:51:54.562Z,3.23
2019-02-02T06:54:22.111Z,2.83
2019-02-02T06:56:50.222Z,3.17
2019-02-02T06:59:18.274Z,3.10
2019-02-02T07:01:45.953Z,4.20
2019-02-02T07:04:13.971Z,3.30
2019-02-02T07:06:42.055Z,3.47
2019-02-02T07:09:09.588Z,3.47
2019-02-02T07:11:37.274Z,3.20
2019-02-02T07:14:05.818Z,3.75
2019-02-02T07:16:33.438Z,3.63
2019-02-02T07:19:01.042Z,3.10
2019-02-02T07:21:28.609Z,3.77
2019-02-02T07:23:56.565Z,3.73
2019-02-02T07:26:24.185Z,3.53
2019-02-02T07:28:51.756Z,3.20
2019-02-02T07:31:19.304Z,3.80
2019-02-02T07:33:46.923Z,3.67
2019-02-02T07:36:14.461Z,3.97
2019-02-02T07:38:46.307Z,4.00
2019-02-02T07:41:13.906Z,3.70
2019-02-02T07:43:41.459Z,3.57
2019-02-02T07:46:14.981Z,4.10
2019-02-02T07:48:38.731Z,4.30
2019-02-02T07:51:06.296Z,3.93
2019-02-02T07:53:33.905Z,3.83
2019-02-02T07:56:01.914Z,4.23
2019-02-02T07:58:29.449Z,4.40
2019-02-02T08:00:57.028Z,4.63
2019-02-02T08:03:24.604Z,4.10
2019-02-02T08:05:52.290Z,5.00
2019-02-02T08:08:19.928Z,5.80
2019-02-02T08:10:47.489Z,6.03
2019-02-02T08:13:15.072Z,5.47
2019-02-02T08:15:42.687Z,5.33
2019-02-02T08:18:10.289Z,5.37
2019-02-02T08:20:37.867Z,5.53
2019-02-02T08:23:05.840Z,5.27
2019-02-02T08:25:33.441Z,5.40
2019-02-02T08:28:00.970Z,5.73
2019-02-02T08:30:29.648Z,5.67
2019-02-02T08:32:57.273Z,5.23
2019-02-02T08:35:25.220Z,5.33
2019-02-02T08:37:52.823Z,5.57
2019-02-02T08:40:20.426Z,5.03
2019-02-02T08:42:48.036Z,5.60
2019-02-02T08:45:15.987Z,5.60
2019-02-02T08:47:43.625Z,6.23
2019-02-02T08:50:12.943Z,5.90
2019-02-02T08:52:40.858Z,6.00
2019-02-02T08:55:08.565Z,5.60
2019-02-02T08:57:36.215Z,6.37
2019-02-02T09:00:05.707Z,6.10
2019-02-02T09:02:33.314Z,6.20
2019-02-02T09:05:01.477Z,6.47
2019-02-02T09:07:29.378Z,6.87
2019-02-02T09:09:56.927Z,6.60
2019-02-02T09:12:24.542Z,6.87
2019-02-02T09:14:52.198Z,6.63
2019-02-02T09:17:20.285Z,7.83
2019-02-02T09:19:48.209Z,7.10
2019-02-02T09:22:16.246Z,8.83
2019-02-02T09:24:43.964Z,8.03
2019-02-02T09:27:11.922Z,6.53
2019-02-02T09:32:37.425Z,7.40
2019-02-02T09:35:07.453Z,7.03
2019-02-02T09:37:36.402Z,7.40
2019-02-02T09:40:05.894Z,8.00
2019-02-02T09:42:33.475Z,6.57
2019-02-02T09:45:01.099Z,7.37
2019-02-02T09:47:28.683Z,6.43
2019-02-02T09:49:56.240Z,5.60
2019-02-02T09:52:23.796Z,7.10
2019-02-02T09:54:51.814Z,8.00
2019-02-02T09:57:19.789Z,7.10
2019-02-02T09:59:47.421Z,7.50
2019-02-02T10:02:15.037Z,8.23
2019-02-02T10:04:47.020Z,8.33
2019-02-02T10:07:22.708Z,8.50
2019-02-02T10:12:43.234Z,7.67
2019-02-02T10:15:10.995Z,8.53
2019-02-02T10:17:38.765Z,7.50
2019-02-02T10:20:13.984Z,8.20
2019-02-02T10:22:41.775Z,8.13
2019-02-02T10:25:10.972Z,7.70
2019-02-02T10:27:40.481Z,7.33
2019-02-02T10:30:09.768Z,8.20
2019-02-02T10:32:52.797Z,7.20
2019-02-02T10:35:20.565Z,7.60
2019-02-02T10:37:48.342Z,8.70
2019-02-02T10:40:16.206Z,7.67
2019-02-02T10:43:07.208Z,8.83
2019-02-02T10:45:34.836Z,8.47
2019-02-02T10:48:02.384Z,8.03
2019-02-02T10:50:30.708Z,8.67
2019-02-02T10:52:58.476Z,8.30
2019-02-02T10:55:26.140Z,8.07
2019-02-02T10:57:54.871Z,9.50
2019-02-02T11:00:26.476Z,7.87
2019-02-02T11:02:54.253Z,7.97
2019-02-02T11:05:21.809Z,7.87
2019-02-02T11:07:49.533Z,7.97
2019-02-02T11:10:41.464Z,11.47
2019-02-02T11:13:09.362Z,40.90
2019-02-02T11:15:37.166Z,327.70
2019-02-02T11:18:05.482Z,202.38
2019-02-02T11:20:34.162Z,50.50
2019-02-02T11:23:01.859Z,306.23
2019-02-02T11:25:29.627Z,72.70
2019-02-02T11:27:57.770Z,19.10
2019-02-02T11:30:25.604Z,21.37
2019-02-02T11:32:53.718Z,12.07
2019-02-02T11:35:21.744Z,10.57
2019-02-02T11:37:49.361Z,8.23
2019-02-02T11:40:21.336Z,7.87
2019-02-02T11:42:49.013Z,7.77
2019-02-02T11:45:16.786Z,7.63
2019-02-02T11:47:44.552Z,7.23
2019-02-02T11:50:13.848Z,7.27
2019-02-02T11:52:41.620Z,22.90
2019-02-02T11:55:10.508Z,10.23
2019-02-02T11:57:38.278Z,10.43
2019-02-02T12:00:16.226Z,16.60
2019-02-02T12:02:49.563Z,7.80
2019-02-02T12:05:12.103Z,6.87
2019-02-02T12:07:39.884Z,6.77
2019-02-02T12:10:09.171Z,7.10
2019-02-02T12:12:36.855Z,5.33
2019-02-02T12:15:05.972Z,5.90
2019-02-02T12:17:33.624Z,5.67
2019-02-02T12:20:01.381Z,5.80
2019-02-02T12:22:29.149Z,5.10
2019-02-02T12:24:56.801Z,4.77
2019-02-02T12:27:24.478Z,5.97
2019-02-02T12:29:52.239Z,5.20
2019-02-02T12:32:26.654Z,5.53
2019-02-02T12:34:49.200Z,5.77
2019-02-02T12:37:16.862Z,5.40
2019-02-02T12:39:44.532Z,5.80
2019-02-02T12:42:12.304Z,5.53
2019-02-02T12:44:40.065Z,5.13
2019-02-02T12:47:07.722Z,5.40
2019-02-02T12:49:35.260Z,4.90
2019-02-02T12:52:02.964Z,4.93
2019-02-02T12:54:30.623Z,6.30
2019-02-02T12:56:58.187Z,5.50
2019-02-02T12:59:27.736Z,5.50
2019-02-02T13:01:55.344Z,5.20
2019-02-02T13:04:23.004Z,5.90
2019-02-02T13:06:52.205Z,6.27
2019-02-02T13:09:20.081Z,5.67
2019-02-02T13:11:47.703Z,5.40
2019-02-02T13:14:15.317Z,5.43
2019-02-02T13:16:42.964Z,5.70
2019-02-02T13:19:10.542Z,5.90
2019-02-02T13:21:38.183Z,5.50
2019-02-02T13:24:05.853Z,6.53
2019-02-02T13:26:33.532Z,6.17
2019-02-02T13:29:01.185Z,5.80
2019-02-02T13:31:28.944Z,6.03
2019-02-02T13:33:56.639Z,6.13
2019-02-02T13:36:24.239Z,6.87
2019-02-02T13:38:52.048Z,6.07
2019-02-02T13:41:19.701Z,6.17
2019-02-02T13:43:47.449Z,6.33
2019-02-02T13:46:15.130Z,8.07
2019-02-02T13:48:42.808Z,6.17
2019-02-02T13:51:10.421Z,6.77
2019-02-02T13:53:38.152Z,5.60
2019-02-02T13:56:05.831Z,8.67
2019-02-02T13:58:33.433Z,6.10
2019-02-02T14:01:02.225Z,5.97
2019-02-02T14:03:30.015Z,5.77
2019-02-02T14:05:57.785Z,7.33
2019-02-02T14:08:25.434Z,6.77
2019-02-02T14:10:53.314Z,5.87
2019-02-02T14:13:21.072Z,6.40
2019-02-02T14:15:48.746Z,6.17
2019-02-02T14:18:16.695Z,6.40
2019-02-02T14:20:44.237Z,6.10
2019-02-02T14:23:12.234Z,6.23
2019-02-02T14:25:40.158Z,7.13
2019-02-02T14:28:08.106Z,6.53
2019-02-02T14:31:00.704Z,5.63
2019-02-02T14:33:28.381Z,6.17
2019-02-02T14:35:56.046Z,6.47
2019-02-02T14:38:23.814Z,13.10
2019-02-02T14:40:51.355Z,6.47
2019-02-02T14:43:19.046Z,5.43
2019-02-02T14:45:46.717Z,5.53
2019-02-02T14:48:14.361Z,6.83
2019-02-02T14:50:42.215Z,6.33
2019-02-02T14:53:09.928Z,6.27
2019-02-02T14:55:37.560Z,6.77
2019-02-02T14:58:05.443Z,7.13
2019-02-02T15:00:33.361Z,7.70
2019-02-02T15:03:03.223Z,8.17
2019-02-02T15:05:42.093Z,14.50
2019-02-02T15:07:59.741Z,8.03
2019-02-02T15:10:27.445Z,7.53
2019-02-02T15:12:55.422Z,21.30
2019-02-02T15:15:23.047Z,10.53
2019-02-02T15:17:50.739Z,8.47
2019-02-02T15:20:22.165Z,8.40
2019-02-02T15:22:48.928Z,25.90
2019-02-02T15:25:16.688Z,12.63
2019-02-02T15:27:44.458Z,9.13
2019-02-02T15:30:16.329Z,14.83
2019-02-02T15:32:43.990Z,9.87
2019-02-02T15:35:14.170Z,8.83
2019-02-02T15:37:40.947Z,7.10
2019-02-02T15:40:13.116Z,8.90
2019-02-02T15:42:40.776Z,10.30
2019-02-02T15:45:12.852Z,22.23
2019-02-02T15:47:40.479Z,20.40
2019-02-02T15:50:10.021Z,58.37
2019-02-02T15:52:50.502Z,25.33
2019-02-02T15:55:18.899Z,16.97
2019-02-02T15:57:46.623Z,10.90
2019-02-02T16:00:20.743Z,15.30
2019-02-02T16:02:48.389Z,16.27
2019-02-02T16:05:16.772Z,24.00
2019-02-02T16:07:44.457Z,7.63
2019-02-02T16:10:15.362Z,9.43
2019-02-02T16:12:42.727Z,19.87
2019-02-02T16:15:10.421Z,18.13
2019-02-02T16:17:38.051Z,11.80
2019-02-02T16:20:42.582Z,10.40
2019-02-02T16:23:10.264Z,6.80
2019-02-02T16:25:38.032Z,9.87
2019-02-02T16:28:05.673Z,11.57
2019-02-02T16:30:33.453Z,6.00
2019-02-02T16:33:01.104Z,5.10
2019-02-02T16:35:28.985Z,4.87
2019-02-02T16:37:56.577Z,5.80
2019-02-02T16:40:27.896Z,8.73
2019-02-02T16:42:55.472Z,7.43
2019-02-02T16:45:24.143Z,4.73
2019-02-02T16:48:30.107Z,8.07
2019-02-02T16:50:57.793Z,20.17
2019-02-02T16:53:25.437Z,5.30
2019-02-02T16:55:53.413Z,6.77
2019-02-02T16:58:21.169Z,5.83
2019-02-02T17:00:48.712Z,7.63
2019-02-02T17:03:16.403Z,6.07
2019-02-02T17:05:43.941Z,5.67
2019-02-02T17:08:11.725Z,7.23
2019-02-02T17:10:39.371Z,6.50
2019-02-02T17:13:07.149Z,9.80
2019-02-02T17:15:34.817Z,5.50
2019-02-02T17:18:02.580Z,5.43
2019-02-02T17:20:31.954Z,4.97
2019-02-02T17:22:59.673Z,5.03
2019-02-02T17:25:27.310Z,5.10
2019-02-02T17:27:55.186Z,5.40
2019-02-02T17:30:23.762Z,6.27
2019-02-02T17:32:51.749Z,6.27
2019-02-02T17:35:19.504Z,15.53
2019-02-02T17:37:47.381Z,36.37
2019-02-02T17:40:16.586Z,38.70
2019-02-02T17:42:44.317Z,14.73
2019-02-02T17:45:13.336Z,14.77
2019-02-02T17:47:41.093Z,77.73
2019-02-02T17:50:10.383Z,75.23
2019-02-02T17:53:05.303Z,135.70
2019-02-02T17:55:32.948Z,44.93
2019-02-02T17:58:00.731Z,173.27
2019-02-02T18:00:31.257Z,76.80
2019-02-02T18:02:58.875Z,61.57
2019-02-02T18:05:26.593Z,61.73
2019-02-02T18:07:54.213Z,88.50
2019-02-02T18:10:22.121Z,126.03
2019-02-02T18:12:49.881Z,81.17
2019-02-02T18:15:17.566Z,159.37
2019-02-02T18:17:45.315Z,28.57
2019-02-02T18:20:14.101Z,41.03
2019-02-02T18:22:41.768Z,198.87
2019-02-02T18:25:10.758Z,299.23
2019-02-02T18:27:38.478Z,170.00
2019-02-02T18:30:13.873Z,41.03
2019-02-02T18:32:41.641Z,54.33
2019-02-02T18:35:10.437Z,60.07
2019-02-02T18:37:38.105Z,37.50
2019-02-02T18:40:07.594Z,61.83
2019-02-02T18:42:35.260Z,75.40
2019-02-02T18:45:02.926Z,48.07
2019-02-02T18:47:30.585Z,21.97
2019-02-02T18:49:58.216Z,15.53
2019-02-02T18:52:26.023Z,12.77
2019-02-02T18:54:53.679Z,11.77
2019-02-02T18:57:21.338Z,13.50
2019-02-02T18:59:49.106Z,8.87
2019-02-02T19:02:16.774Z,13.60
2019-02-02T19:04:44.416Z,23.03
2019-02-02T19:07:12.288Z,36.63
2019-02-02T19:09:39.970Z,22.63
2019-02-02T19:12:07.735Z,12.97
2019-02-02T19:14:56.180Z,12.20
2019-02-02T19:17:23.827Z,14.37
2019-02-02T19:19:51.525Z,10.43
2019-02-02T19:22:19.151Z,9.17
2019-02-02T19:24:46.733Z,12.80
2019-02-02T19:27:14.393Z,11.73
2019-02-02T19:29:41.972Z,11.57
2019-02-02T19:32:09.520Z,14.40
2019-02-02T19:34:37.100Z,13.07
2019-02-02T19:37:04.844Z,11.87
2019-02-02T19:39:32.500Z,13.80
2019-02-02T19:42:00.282Z,18.13
2019-02-02T19:44:28.044Z,12.00
2019-02-02T19:46:55.608Z,13.10
2019-02-02T19:49:23.379Z,12.20
2019-02-02T19:51:51.240Z,14.83
2019-02-02T19:54:18.884Z,12.80
2019-02-02T19:56:46.670Z,13.33
2019-02-02T19:59:14.639Z,12.97
2019-02-02T20:01:42.317Z,12.67
2019-02-02T20:04:10.077Z,13.47
2019-02-02T20:06:37.760Z,14.47
2019-02-02T20:09:06.312Z,26.80
2019-02-02T20:11:33.976Z,20.73
2019-02-02T20:14:01.742Z,16.63
2019-02-02T20:16:29.511Z,18.10
2019-02-02T20:18:57.170Z,27.73
2019-02-02T20:21:24.941Z,24.07
2019-02-02T20:23:52.717Z,20.00
2019-02-02T20:26:20.378Z,16.93
2019-02-02T20:28:48.029Z,19.03
2019-02-02T20:31:15.693Z,16.90
2019-02-02T20:33:43.566Z,16.73
2019-02-02T20:36:42.261Z,21.77
2019-02-02T20:39:33.248Z,18.90
2019-02-02T20:42:00.924Z,30.07
2019-02-02T20:44:28.692Z,19.53
2019-02-02T20:46:56.344Z,24.50
2019-02-02T20:49:23.992Z,33.07
2019-02-02T20:51:51.676Z,28.30
2019-02-02T20:54:19.352Z,22.37
2019-02-02T20:56:47.004Z,22.97
2019-02-02T20:59:14.672Z,21.57
2019-02-02T21:01:42.218Z,20.57
2019-02-02T21:04:09.836Z,20.90
2019-02-02T21:06:37.868Z,21.30
2019-02-02T21:09:06.250Z,24.87
2019-02-02T21:11:34.008Z,23.90
2019-02-02T21:14:01.664Z,23.83
2019-02-02T21:16:29.448Z,23.50
2019-02-02T21:18:57.209Z,22.23
2019-02-02T21:21:24.885Z,18.23
2019-02-02T21:23:54.824Z,19.13
2019-02-02T21:26:21.940Z,21.43
2019-02-02T21:28:50.757Z,14.60
2019-02-02T21:31:18.707Z,14.40
2019-02-02T21:33:46.347Z,15.73
2019-02-02T21:36:14.012Z,15.70
2019-02-02T21:38:41.684Z,14.50
2019-02-02T21:41:09.448Z,13.20
2019-02-02T21:43:37.012Z,11.87
2019-02-02T21:46:05.396Z,9.80
2019-02-02T21:48:36.010Z,10.27
2019-02-02T21:51:02.360Z,10.80
2019-02-02T21:53:29.931Z,10.40
2019-02-02T21:55:57.600Z,10.77
2019-02-02T21:58:25.244Z,10.90
2019-02-02T22:00:52.985Z,12.57
2019-02-02T22:03:20.568Z,12.70
2019-02-02T22:05:48.227Z,12.17
2019-02-02T22:08:16.012Z,19.80
2019-02-02T22:10:43.681Z,20.70
2019-02-02T22:13:11.442Z,21.80
2019-02-02T22:15:39.100Z,36.43
2019-02-02T22:18:06.764Z,20.20
2019-02-02T22:20:34.427Z,75.27
2019-02-02T22:23:01.975Z,34.00
2019-02-02T22:25:30.572Z,32.53
2019-02-02T22:27:58.347Z,31.90
2019-02-02T22:30:27.953Z,31.83
2019-02-02T22:32:55.720Z,23.53
2019-02-02T22:35:23.255Z,23.13
2019-02-02T22:37:50.945Z,23.50
2019-02-02T22:40:22.397Z,22.20
2019-02-02T22:42:50.159Z,20.73
2019-02-02T22:45:18.314Z,20.47
2019-02-02T22:47:45.996Z,23.47
2019-02-02T22:50:14.784Z,25.50
2019-02-02T22:52:42.863Z,21.77
2019-02-02T22:55:11.708Z,20.97
2019-02-02T22:57:39.399Z,20.10
2019-02-02T23:00:11.256Z,19.63
2019-02-02T23:02:38.941Z,18.60
2019-02-02T23:05:08.146Z,17.47
2019-02-02T23:07:37.243Z,18.37
2019-02-02T23:10:07.057Z,18.90
2019-02-02T23:12:42.293Z,17.90
2019-02-02T23:15:11.608Z,25.97
2019-02-02T23:17:39.572Z,35.17
2019-02-02T23:20:08.161Z,27.43
2019-02-02T23:22:35.808Z,24.03
2019-02-02T23:25:04.812Z,24.43
2019-02-02T23:27:32.472Z,23.83
2019-02-02T23:30:00.020Z,24.67
2019-02-02T23:32:27.798Z,25.17
2019-02-02T23:34:55.471Z,31.03
2019-02-02T23:37:23.113Z,36.27
2019-02-02T23:39:50.896Z,35.37
2019-02-02T23:42:37.094Z,32.20
2019-02-02T23:45:06.498Z,45.97
2019-02-02T23:47:34.260Z,47.63
2019-02-02T23:50:02.033Z,37.73
2019-02-02T23:52:29.694Z,56.47
2019-02-02T23:54:57.461Z,69.53
2019-02-02T23:57:25.327Z,36.10
2019-02-02T23:59:53.294Z,39.07
